sensor_id;sensor_type;location;lat;lon;timestamp;pressure;altitude;pressure_sealevel;temperature;humidity
34205;BME280;20471;49.680;20.074;2024-01-10T00:02:10;98793.11;;;-16.09;66.66
34205;BME280;20471;49.680;20.074;2024-01-10T00:04:37;98797.80;;;-16.13;66.44
34205;BME280;20471;49.680;20.074;2024-01-10T00:07:05;98795.92;;;-16.14;66.57
34205;BME280;20471;49.680;20.074;2024-01-10T00:09:32;98792.30;;;-16.15;66.66
34205;BME280;20471;49.680;20.074;2024-01-10T00:12:00;98794.38;;;-16.16;66.34
34205;BME280;20471;49.680;20.074;2024-01-10T00:14:28;98790.61;;;-16.19;66.58
34205;BME280;20471;49.680;20.074;2024-01-10T00:16:55;98790.81;;;-16.21;66.52
34205;BME280;20471;49.680;20.074;2024-01-10T00:19:23;98790.98;;;-16.21;66.64
34205;BME280;20471;49.680;20.074;2024-01-10T00:21:51;98790.98;;;-16.20;66.59
34205;BME280;20471;49.680;20.074;2024-01-10T00:24:18;98787.20;;;-16.20;66.66
34205;BME280;20471;49.680;20.074;2024-01-10T00:26:46;98787.02;;;-16.19;66.75
34205;BME280;20471;49.680;20.074;2024-01-10T00:29:14;98786.98;;;-16.18;66.86
34205;BME280;20471;49.680;20.074;2024-01-10T00:31:41;98790.09;;;-16.17;66.88
34205;BME280;20471;49.680;20.074;2024-01-10T00:34:09;98789.08;;;-16.19;66.76
34205;BME280;20471;49.680;20.074;2024-01-10T00:36:37;98792.89;;;-16.21;66.88
34205;BME280;20471;49.680;20.074;2024-01-10T00:39:04;98789.27;;;-16.21;66.91
34205;BME280;20471;49.680;20.074;2024-01-10T00:41:32;98790.45;;;-16.19;67.07
34205;BME280;20471;49.680;20.074;2024-01-10T00:44:00;98792.14;;;-16.17;67.12
34205;BME280;20471;49.680;20.074;2024-01-10T00:46:28;98787.13;;;-16.15;67.13
34205;BME280;20471;49.680;20.074;2024-01-10T00:48:55;98785.06;;;-16.15;67.05
34205;BME280;20471;49.680;20.074;2024-01-10T00:51:23;98792.14;;;-16.16;67.05
34205;BME280;20471;49.680;20.074;2024-01-10T00:53:53;98794.92;;;-16.18;66.96
34205;BME280;20471;49.680;20.074;2024-01-10T00:56:23;98792.52;;;-16.17;67.00
34205;BME280;20471;49.680;20.074;2024-01-10T00:58:53;98786.51;;;-16.20;67.04
34205;BME280;20471;49.680;20.074;2024-01-10T01:01:24;98790.13;;;-16.21;67.05
34205;BME280;20471;49.680;20.074;2024-01-10T01:03:53;98792.55;;;-16.22;67.13
34205;BME280;20471;49.680;20.074;2024-01-10T01:06:23;98788.05;;;-16.20;67.15
34205;BME280;20471;49.680;20.074;2024-01-10T01:08:52;98784.79;;;-16.21;66.92
34205;BME280;20471;49.680;20.074;2024-01-10T01:11:21;98786.38;;;-16.26;66.86
34205;BME280;20471;49.680;20.074;2024-01-10T01:13:51;98786.73;;;-16.27;67.01
34205;BME280;20471;49.680;20.074;2024-01-10T01:16:21;98791.27;;;-16.31;66.96
34205;BME280;20471;49.680;20.074;2024-01-10T01:18:50;98792.49;;;-16.35;66.80
34205;BME280;20471;49.680;20.074;2024-01-10T01:21:19;98791.48;;;-16.37;66.88
34205;BME280;20471;49.680;20.074;2024-01-10T01:23:48;98792.17;;;-16.40;66.95
34205;BME280;20471;49.680;20.074;2024-01-10T01:26:16;98791.67;;;-16.39;66.92
34205;BME280;20471;49.680;20.074;2024-01-10T01:28:44;98792.15;;;-16.34;67.08
34205;BME280;20471;49.680;20.074;2024-01-10T01:31:12;98793.19;;;-16.34;66.92
34205;BME280;20471;49.680;20.074;2024-01-10T01:33:40;98794.73;;;-16.35;67.20
34205;BME280;20471;49.680;20.074;2024-01-10T01:36:08;98793.36;;;-16.35;67.13
34205;BME280;20471;49.680;20.074;2024-01-10T01:38:37;98791.11;;;-16.34;67.26
34205;BME280;20471;49.680;20.074;2024-01-10T01:41:06;98789.56;;;-16.34;67.07
34205;BME280;20471;49.680;20.074;2024-01-10T01:43:35;98791.08;;;-16.30;67.17
34205;BME280;20471;49.680;20.074;2024-01-10T01:46:03;98788.83;;;-16.29;67.07
34205;BME280;20471;49.680;20.074;2024-01-10T01:48:33;98791.10;;;-16.33;67.02
34205;BME280;20471;49.680;20.074;2024-01-10T01:51:06;98788.00;;;-16.34;67.10
34205;BME280;20471;49.680;20.074;2024-01-10T01:53:35;98785.95;;;-16.35;67.03
34205;BME280;20471;49.680;20.074;2024-01-10T01:56:08;98787.52;;;-16.38;67.07
34205;BME280;20471;49.680;20.074;2024-01-10T01:58:38;98786.65;;;-16.38;67.22
34205;BME280;20471;49.680;20.074;2024-01-10T02:01:07;98787.36;;;-16.38;67.34
34205;BME280;20471;49.680;20.074;2024-01-10T02:03:35;98785.11;;;-16.39;67.18
34205;BME280;20471;49.680;20.074;2024-01-10T02:06:04;98788.90;;;-16.38;67.35
34205;BME280;20471;49.680;20.074;2024-01-10T02:08:33;98785.43;;;-16.35;67.34
34205;BME280;20471;49.680;20.074;2024-01-10T02:11:02;98789.56;;;-16.32;67.34
34205;BME280;20471;49.680;20.074;2024-01-10T02:13:31;98791.11;;;-16.34;67.27
34205;BME280;20471;49.680;20.074;2024-01-10T02:15:59;98786.98;;;-16.34;67.33
34205;BME280;20471;49.680;20.074;2024-01-10T02:18:27;98788.20;;;-16.35;67.16
34205;BME280;20471;49.680;20.074;2024-01-10T02:20:54;98790.44;;;-16.36;67.30
34205;BME280;20471;49.680;20.074;2024-01-10T02:23:22;98790.09;;;-16.36;67.27
34205;BME280;20471;49.680;20.074;2024-01-10T02:25:50;98785.95;;;-16.37;67.17
34205;BME280;20471;49.680;20.074;2024-01-10T02:28:17;98783.89;;;-16.37;67.25
34205;BME280;20471;49.680;20.074;2024-01-10T02:30:45;98784.57;;;-16.35;67.28
34205;BME280;20471;49.680;20.074;2024-01-10T02:33:13;98783.54;;;-16.35;67.41
34205;BME280;20471;49.680;20.074;2024-01-10T02:35:41;98776.46;;;-16.35;67.42
34205;BME280;20471;49.680;20.074;2024-01-10T02:38:09;98774.39;;;-16.35;67.41
34205;BME280;20471;49.680;20.074;2024-01-10T02:40:36;98771.11;;;-16.33;67.64
34205;BME280;20471;49.680;20.074;2024-01-10T02:43:04;98770.59;;;-16.31;67.76
34205;BME280;20471;49.680;20.074;2024-01-10T02:45:33;98771.45;;;-16.32;67.66
34205;BME280;20471;49.680;20.074;2024-01-10T02:48:02;98769.56;;;-16.33;67.74
34205;BME280;20471;49.680;20.074;2024-01-10T02:50:30;98768.17;;;-16.33;67.69
34205;BME280;20471;49.680;20.074;2024-01-10T02:52:57;98769.05;;;-16.33;67.82
34205;BME280;20471;49.680;20.074;2024-01-10T02:55:25;98772.63;;;-16.30;67.79
34205;BME280;20471;49.680;20.074;2024-01-10T02:57:53;98766.96;;;-16.31;67.65
34205;BME280;20471;49.680;20.074;2024-01-10T03:00:20;98768.88;;;-16.34;67.61
34205;BME280;20471;49.680;20.074;2024-01-10T03:02:48;98769.40;;;-16.34;67.53
34205;BME280;20471;49.680;20.074;2024-01-10T03:05:16;98758.22;;;-16.37;67.61
34205;BME280;20471;49.680;20.074;2024-01-10T03:07:44;98756.33;;;-16.38;67.62
34205;BME280;20471;49.680;20.074;2024-01-10T03:10:11;98758.05;;;-16.39;67.77
34205;BME280;20471;49.680;20.074;2024-01-10T03:12:39;98753.92;;;-16.41;67.39
34205;BME280;20471;49.680;20.074;2024-01-10T03:15:07;98755.48;;;-16.40;67.52
34205;BME280;20471;49.680;20.074;2024-01-10T03:17:35;98752.02;;;-16.38;67.42
34205;BME280;20471;49.680;20.074;2024-01-10T03:20:03;98751.34;;;-16.39;67.48
34205;BME280;20471;49.680;20.074;2024-01-10T03:22:31;98750.13;;;-16.40;67.59
34205;BME280;20471;49.680;20.074;2024-01-10T03:24:59;98747.53;;;-16.38;67.68
34205;BME280;20471;49.680;20.074;2024-01-10T03:27:27;98747.69;;;-16.35;67.75
34205;BME280;20471;49.680;20.074;2024-01-10T03:29:54;98745.28;;;-16.36;67.77
34205;BME280;20471;49.680;20.074;2024-01-10T03:32:22;98741.84;;;-16.35;67.87
34205;BME280;20471;49.680;20.074;2024-01-10T03:34:50;98742.48;;;-16.31;67.85
34205;BME280;20471;49.680;20.074;2024-01-10T03:37:18;98742.63;;;-16.29;67.82
34205;BME280;20471;49.680;20.074;2024-01-10T03:39:46;98741.58;;;-16.28;67.74
34205;BME280;20471;49.680;20.074;2024-01-10T03:42:14;98741.73;;;-16.26;67.68
34205;BME280;20471;49.680;20.074;2024-01-10T03:44:42;98740.52;;;-16.25;67.66
34205;BME280;20471;49.680;20.074;2024-01-10T03:47:09;98737.43;;;-16.27;67.58
34205;BME280;20471;49.680;20.074;2024-01-10T03:49:37;98735.41;;;-16.30;67.58
34205;BME280;20471;49.680;20.074;2024-01-10T03:52:05;98736.81;;;-16.32;67.81
34205;BME280;20471;49.680;20.074;2024-01-10T03:54:32;98740.08;;;-16.31;67.92
34205;BME280;20471;49.680;20.074;2024-01-10T03:57:01;98741.27;;;-16.30;67.91
34205;BME280;20471;49.680;20.074;2024-01-10T03:59:29;98739.77;;;-16.35;67.72
34205;BME280;20471;49.680;20.074;2024-01-10T04:01:56;98740.30;;;-16.38;67.83
34205;BME280;20471;49.680;20.074;2024-01-10T04:04:26;98737.54;;;-16.37;67.90
34205;BME280;20471;49.680;20.074;2024-01-10T04:06:54;98737.88;;;-16.36;67.74
34205;BME280;20471;49.680;20.074;2024-01-10T04:09:22;98738.23;;;-16.39;67.73
34205;BME280;20471;49.680;20.074;2024-01-10T04:11:49;98736.22;;;-16.43;67.57
34205;BME280;20471;49.680;20.074;2024-01-10T04:14:17;98739.16;;;-16.45;67.71
34205;BME280;20471;49.680;20.074;2024-01-10T04:16:45;98736.58;;;-16.44;67.81
34205;BME280;20471;49.680;20.074;2024-01-10T04:19:12;98734.48;;;-16.42;67.60
34205;BME280;20471;49.680;20.074;2024-01-10T04:21:40;98738.96;;;-16.42;67.75
34205;BME280;20471;49.680;20.074;2024-01-10T04:24:08;98744.30;;;-16.42;67.71
34205;BME280;20471;49.680;20.074;2024-01-10T04:26:35;98743.64;;;-16.44;67.74
34205;BME280;20471;49.680;20.074;2024-01-10T04:29:03;98738.63;;;-16.43;67.52
34205;BME280;20471;49.680;20.074;2024-01-10T04:31:31;98744.17;;;-16.45;67.77
34205;BME280;20471;49.680;20.074;2024-01-10T04:33:58;98742.63;;;-16.46;67.70
34205;BME280;20471;49.680;20.074;2024-01-10T04:36:26;98741.09;;;-16.48;67.63
34205;BME280;20471;49.680;20.074;2024-01-10T04:38:54;98743.33;;;-16.49;67.82
34205;BME280;20471;49.680;20.074;2024-01-10T04:41:21;98743.83;;;-16.46;68.02
34205;BME280;20471;49.680;20.074;2024-01-10T04:43:49;98743.12;;;-16.43;68.09
34205;BME280;20471;49.680;20.074;2024-01-10T04:46:17;98742.73;;;-16.41;68.15
34205;BME280;20471;49.680;20.074;2024-01-10T04:48:45;98743.92;;;-16.38;68.14
34205;BME280;20471;49.680;20.074;2024-01-10T04:51:12;98738.58;;;-16.38;68.14
34205;BME280;20471;49.680;20.074;2024-01-10T04:53:41;98743.07;;;-16.39;68.02
34205;BME280;20471;49.680;20.074;2024-01-10T04:56:08;98742.77;;;-16.43;67.85
34205;BME280;20471;49.680;20.074;2024-01-10T04:58:36;98745.04;;;-16.47;67.77
34205;BME280;20471;49.680;20.074;2024-01-10T05:01:04;98743.15;;;-16.47;67.94
34205;BME280;20471;49.680;20.074;2024-01-10T05:03:32;98744.69;;;-16.46;68.01
34205;BME280;20471;49.680;20.074;2024-01-10T05:06:00;98740.56;;;-16.47;68.05
34205;BME280;20471;49.680;20.074;2024-01-10T05:08:27;98741.61;;;-16.49;68.15
34205;BME280;20471;49.680;20.074;2024-01-10T05:10:56;98743.15;;;-16.48;68.30
34205;BME280;20471;49.680;20.074;2024-01-10T05:13:23;98744.88;;;-16.48;68.27
34205;BME280;20471;49.680;20.074;2024-01-10T05:15:51;98745.90;;;-16.47;68.35
34205;BME280;20471;49.680;20.074;2024-01-10T05:18:19;98746.58;;;-16.45;68.27
34205;BME280;20471;49.680;20.074;2024-01-10T05:20:47;98746.77;;;-16.46;68.25
34205;BME280;20471;49.680;20.074;2024-01-10T05:23:15;98745.73;;;-16.46;68.29
34205;BME280;20471;49.680;20.074;2024-01-10T05:25:43;98742.91;;;-16.41;68.44
34205;BME280;20471;49.680;20.074;2024-01-10T05:28:10;98741.15;;;-16.36;68.44
34205;BME280;20471;49.680;20.074;2024-01-10T05:30:39;98741.48;;;-16.34;68.45
34205;BME280;20471;49.680;20.074;2024-01-10T05:33:07;98742.48;;;-16.32;68.37
34205;BME280;20471;49.680;20.074;2024-01-10T05:35:35;98742.85;;;-16.33;68.29
34205;BME280;20471;49.680;20.074;2024-01-10T05:38:03;98742.17;;;-16.34;68.32
34205;BME280;20471;49.680;20.074;2024-01-10T05:40:31;98743.03;;;-16.35;68.35
34205;BME280;20471;49.680;20.074;2024-01-10T05:42:59;98740.27;;;-16.35;68.32
34205;BME280;20471;49.680;20.074;2024-01-10T05:45:27;98737.35;;;-16.35;68.13
34205;BME280;20471;49.680;20.074;2024-01-10T05:47:55;98737.84;;;-16.33;68.24
34205;BME280;20471;49.680;20.074;2024-01-10T05:50:22;98744.17;;;-16.29;68.08
34205;BME280;20471;49.680;20.074;2024-01-10T05:52:50;98742.08;;;-16.27;68.09
34205;BME280;20471;49.680;20.074;2024-01-10T05:55:18;98744.40;;;-16.17;68.43
34205;BME280;20471;49.680;20.074;2024-01-10T05:57:46;98747.88;;;-16.03;68.69
34205;BME280;20471;49.680;20.074;2024-01-10T06:00:14;98741.70;;;-15.92;68.74
34205;BME280;20471;49.680;20.074;2024-01-10T06:02:43;98743.34;;;-15.83;68.60
34205;BME280;20471;49.680;20.074;2024-01-10T06:05:11;98745.00;;;-15.79;68.24
34205;BME280;20471;49.680;20.074;2024-01-10T06:07:40;98746.67;;;-15.74;68.26
34205;BME280;20471;49.680;20.074;2024-01-10T06:10:09;98748.46;;;-15.65;68.42
34205;BME280;20471;49.680;20.074;2024-01-10T06:12:37;98747.61;;;-15.54;68.35
34205;BME280;20471;49.680;20.074;2024-01-10T06:15:06;98749.88;;;-15.43;68.31
34205;BME280;20471;49.680;20.074;2024-01-10T06:17:34;98751.13;;;-15.34;68.25
34205;BME280;20471;49.680;20.074;2024-01-10T06:20:02;98749.48;;;-15.27;68.20
34205;BME280;20471;49.680;20.074;2024-01-10T06:22:30;98752.83;;;-15.20;68.18
34205;BME280;20471;49.680;20.074;2024-01-10T06:24:58;98753.90;;;-15.10;68.33
34205;BME280;20471;49.680;20.074;2024-01-10T06:27:26;98755.41;;;-14.96;68.35
34205;BME280;20471;49.680;20.074;2024-01-10T06:29:54;98756.98;;;-14.85;68.47
34205;BME280;20471;49.680;20.074;2024-01-10T06:32:22;98754.69;;;-14.71;68.17
34205;BME280;20471;49.680;20.074;2024-01-10T06:34:49;98755.48;;;-14.66;68.20
34205;BME280;20471;49.680;20.074;2024-01-10T06:37:17;98759.06;;;-14.63;67.98
34205;BME280;20471;49.680;20.074;2024-01-10T06:39:45;98759.44;;;-14.65;67.87
34205;BME280;20471;49.680;20.074;2024-01-10T06:42:13;98758.25;;;-14.67;67.70
34205;BME280;20471;49.680;20.074;2024-01-10T06:44:40;98761.45;;;-14.73;67.69
34205;BME280;20471;49.680;20.074;2024-01-10T06:47:08;98759.29;;;-14.78;67.71
34205;BME280;20471;49.680;20.074;2024-01-10T06:49:36;98761.32;;;-14.75;67.84
34205;BME280;20471;49.680;20.074;2024-01-10T06:52:05;98763.64;;;-14.69;67.72
34205;BME280;20471;49.680;20.074;2024-01-10T06:54:34;98763.88;;;-14.62;67.76
34205;BME280;20471;49.680;20.074;2024-01-10T06:57:02;98761.38;;;-14.57;67.70
34205;BME280;20471;49.680;20.074;2024-01-10T06:59:30;98763.38;;;-14.52;67.73
34205;BME280;20471;49.680;20.074;2024-01-10T07:01:57;98766.29;;;-14.51;67.59
34205;BME280;20471;49.680;20.074;2024-01-10T07:04:27;98768.77;;;-14.54;67.50
34205;BME280;20471;49.680;20.074;2024-01-10T07:06:55;98768.22;;;-14.52;67.47
34205;BME280;20471;49.680;20.074;2024-01-10T07:09:23;98766.28;;;-14.50;67.51
34205;BME280;20471;49.680;20.074;2024-01-10T07:11:50;98764.66;;;-14.47;67.44
34205;BME280;20471;49.680;20.074;2024-01-10T07:14:19;98770.77;;;-14.49;67.58
34205;BME280;20471;49.680;20.074;2024-01-10T07:16:47;98768.88;;;-14.41;67.83
34205;BME280;20471;49.680;20.074;2024-01-10T07:19:15;98766.98;;;-14.33;67.71
34205;BME280;20471;49.680;20.074;2024-01-10T07:21:43;98770.96;;;-14.33;67.58
34205;BME280;20471;49.680;20.074;2024-01-10T07:24:10;98774.20;;;-14.30;67.50
34205;BME280;20471;49.680;20.074;2024-01-10T07:26:38;98773.67;;;-14.29;67.55
34205;BME280;20471;49.680;20.074;2024-01-10T07:29:06;98773.54;;;-14.32;67.51
34205;BME280;20471;49.680;20.074;2024-01-10T07:31:35;98777.09;;;-14.27;67.73
34205;BME280;20471;49.680;20.074;2024-01-10T07:34:03;98773.82;;;-14.18;67.79
34205;BME280;20471;49.680;20.074;2024-01-10T07:36:32;98774.66;;;-14.07;67.99
34205;BME280;20471;49.680;20.074;2024-01-10T07:39:01;98773.05;;;-13.95;67.99
34205;BME280;20471;49.680;20.074;2024-01-10T07:41:28;98770.64;;;-13.86;68.13
34205;BME280;20471;49.680;20.074;2024-01-10T07:43:56;98768.05;;;-13.77;68.18
34205;BME280;20471;49.680;20.074;2024-01-10T07:46:24;98770.45;;;-13.59;68.38
34205;BME280;20471;49.680;20.074;2024-01-10T07:48:53;98769.97;;;-13.43;68.31
34205;BME280;20471;49.680;20.074;2024-01-10T07:51:21;98774.95;;;-13.33;68.25
34205;BME280;20471;49.680;20.074;2024-01-10T07:53:49;98767.49;;;-13.24;68.32
34205;BME280;20471;49.680;20.074;2024-01-10T07:56:16;98765.64;;;-13.12;68.32
34205;BME280;20471;49.680;20.074;2024-01-10T07:58:46;98766.66;;;-12.96;68.32
34205;BME280;20471;49.680;20.074;2024-01-10T08:01:15;98765.80;;;-12.89;68.17
34205;BME280;20471;49.680;20.074;2024-01-10T08:03:42;98763.34;;;-12.87;67.97
34205;BME280;20471;49.680;20.074;2024-01-10T08:06:10;98765.85;;;-12.92;67.99
34205;BME280;20471;49.680;20.074;2024-01-10T08:08:39;98764.59;;;-12.89;68.07
34205;BME280;20471;49.680;20.074;2024-01-10T08:11:07;98764.93;;;-12.73;68.37
34205;BME280;20471;49.680;20.074;2024-01-10T08:13:35;98764.65;;;-12.62;68.38
34205;BME280;20471;49.680;20.074;2024-01-10T08:16:03;98765.33;;;-12.61;68.27
34205;BME280;20471;49.680;20.074;2024-01-10T08:18:31;98764.55;;;-12.58;68.34
34205;BME280;20471;49.680;20.074;2024-01-10T08:20:58;98767.80;;;-12.49;68.58
34205;BME280;20471;49.680;20.074;2024-01-10T08:23:26;98767.52;;;-12.30;68.92
34205;BME280;20471;49.680;20.074;2024-01-10T08:25:54;98760.95;;;-12.11;68.95
34205;BME280;20471;49.680;20.074;2024-01-10T08:28:22;98758.19;;;-11.91;68.98
34205;BME280;20471;49.680;20.074;2024-01-10T08:30:49;98761.25;;;-11.77;68.86
34205;BME280;20471;49.680;20.074;2024-01-10T08:33:17;98764.41;;;-11.60;68.94
34205;BME280;20471;49.680;20.074;2024-01-10T08:35:45;98762.00;;;-11.42;68.85
34205;BME280;20471;49.680;20.074;2024-01-10T08:38:12;98765.36;;;-11.32;68.71
34205;BME280;20471;49.680;20.074;2024-01-10T08:40:40;98766.04;;;-11.32;68.63
34205;BME280;20471;49.680;20.074;2024-01-10T08:43:08;98767.74;;;-11.31;68.63
34205;BME280;20471;49.680;20.074;2024-01-10T08:45:35;98768.27;;;-11.24;68.73
34205;BME280;20471;49.680;20.074;2024-01-10T08:48:03;98765.66;;;-11.23;68.62
34205;BME280;20471;49.680;20.074;2024-01-10T08:50:33;98770.34;;;-11.23;68.68
34205;BME280;20471;49.680;20.074;2024-01-10T08:53:01;98768.69;;;-11.26;68.86
34205;BME280;20471;49.680;20.074;2024-01-10T08:55:31;98766.41;;;-11.20;68.99
34205;BME280;20471;49.680;20.074;2024-01-10T08:58:00;98766.23;;;-11.14;68.96
34205;BME280;20471;49.680;20.074;2024-01-10T09:00:28;98762.73;;;-11.08;69.05
34205;BME280;20471;49.680;20.074;2024-01-10T09:02:55;98762.46;;;-10.99;69.15
34205;BME280;20471;49.680;20.074;2024-01-10T09:05:23;98760.13;;;-10.85;69.17
34205;BME280;20471;49.680;20.074;2024-01-10T09:07:51;98757.98;;;-10.67;69.36
34205;BME280;20471;49.680;20.074;2024-01-10T09:10:20;98754.86;;;-10.50;69.37
34205;BME280;20471;49.680;20.074;2024-01-10T09:12:48;98754.45;;;-10.38;69.22
34205;BME280;20471;49.680;20.074;2024-01-10T09:15:16;98749.98;;;-10.34;69.29
34205;BME280;20471;49.680;20.074;2024-01-10T09:17:44;98743.66;;;-10.27;69.27
34205;BME280;20471;49.680;20.074;2024-01-10T09:20:12;98739.52;;;-10.18;69.43
34205;BME280;20471;49.680;20.074;2024-01-10T09:22:40;98738.37;;;-10.06;69.52
34205;BME280;20471;49.680;20.074;2024-01-10T09:25:08;98735.27;;;-9.96;69.59
34205;BME280;20471;49.680;20.074;2024-01-10T09:27:36;98733.98;;;-9.85;69.70
34205;BME280;20471;49.680;20.074;2024-01-10T09:30:04;98731.80;;;-9.68;69.78
34205;BME280;20471;49.680;20.074;2024-01-10T09:32:35;98726.01;;;-9.52;69.87
34205;BME280;20471;49.680;20.074;2024-01-10T09:35:03;98724.16;;;-9.35;70.03
34205;BME280;20471;49.680;20.074;2024-01-10T09:37:31;98718.27;;;-9.22;70.04
34205;BME280;20471;49.680;20.074;2024-01-10T20:50:38;98453.00;;;-9.58;66.00
34205;BME280;20471;49.680;20.074;2024-01-10T20:53:05;98451.52;;;-9.47;65.57
34205;BME280;20471;49.680;20.074;2024-01-10T20:55:33;98446.17;;;-9.53;65.40
34205;BME280;20471;49.680;20.074;2024-01-10T20:58:01;98445.11;;;-9.61;65.41
34205;BME280;20471;49.680;20.074;2024-01-10T21:00:28;98439.95;;;-9.67;65.62
34205;BME280;20471;49.680;20.074;2024-01-10T21:02:56;98443.41;;;-9.75;65.47
34205;BME280;20471;49.680;20.074;2024-01-10T21:05:24;98442.95;;;-9.80;65.38
34205;BME280;20471;49.680;20.074;2024-01-10T21:07:53;98445.38;;;-9.89;65.34
34205;BME280;20471;49.680;20.074;2024-01-10T21:10:20;98446.23;;;-10.02;65.18
34205;BME280;20471;49.680;20.074;2024-01-10T21:12:48;98445.30;;;-10.14;65.15
34205;BME280;20471;49.680;20.074;2024-01-10T21:15:16;98443.16;;;-10.21;65.36
34205;BME280;20471;49.680;20.074;2024-01-10T21:17:44;98441.98;;;-10.26;65.37
34205;BME280;20471;49.680;20.074;2024-01-10T21:20:12;98446.25;;;-10.33;65.36
34205;BME280;20471;49.680;20.074;2024-01-10T21:22:40;98448.20;;;-10.38;65.43
34205;BME280;20471;49.680;20.074;2024-01-10T21:25:07;98450.02;;;-10.40;65.27
34205;BME280;20471;49.680;20.074;2024-01-10T21:27:36;98454.98;;;-10.43;65.39
34205;BME280;20471;49.680;20.074;2024-01-10T21:30:04;98455.80;;;-10.46;65.49
34205;BME280;20471;49.680;20.074;2024-01-10T21:32:32;98453.29;;;-10.49;65.49
34205;BME280;20471;49.680;20.074;2024-01-10T21:35:00;98453.83;;;-10.49;65.45
34205;BME280;20471;49.680;20.074;2024-01-10T21:37:28;98450.46;;;-10.52;65.44
34205;BME280;20471;49.680;20.074;2024-01-10T21:39:56;98455.66;;;-10.56;65.45
34205;BME280;20471;49.680;20.074;2024-01-10T21:42:23;98454.27;;;-10.62;65.57
34205;BME280;20471;49.680;20.074;2024-01-10T21:44:52;98452.50;;;-10.65;65.68
34205;BME280;20471;49.680;20.074;2024-01-10T21:47:21;98454.89;;;-10.64;65.56
34205;BME280;20471;49.680;20.074;2024-01-10T21:49:49;98459.00;;;-10.62;65.58
34205;BME280;20471;49.680;20.074;2024-01-10T21:52:17;98458.78;;;-10.56;65.62
34205;BME280;20471;49.680;20.074;2024-01-10T21:54:44;98460.11;;;-10.50;65.67
34205;BME280;20471;49.680;20.074;2024-01-10T21:57:12;98460.16;;;-10.51;65.53
34205;BME280;20471;49.680;20.074;2024-01-10T21:59:42;98459.91;;;-10.54;65.61
34205;BME280;20471;49.680;20.074;2024-01-10T22:02:10;98467.48;;;-10.56;65.56
34205;BME280;20471;49.680;20.074;2024-01-10T22:04:39;98463.23;;;-10.59;65.64
34205;BME280;20471;49.680;20.074;2024-01-10T22:07:07;98460.90;;;-10.62;65.62
34205;BME280;20471;49.680;20.074;2024-01-10T22:09:35;98459.41;;;-10.64;65.63
34205;BME280;20471;49.680;20.074;2024-01-10T22:12:03;98458.41;;;-10.61;65.56
34205;BME280;20471;49.680;20.074;2024-01-10T22:14:31;98458.39;;;-10.60;65.56
34205;BME280;20471;49.680;20.074;2024-01-10T22:16:59;98456.42;;;-10.59;65.61
34205;BME280;20471;49.680;20.074;2024-01-10T22:19:27;98461.03;;;-10.51;65.59
34205;BME280;20471;49.680;20.074;2024-01-10T22:21:54;98456.50;;;-10.41;65.77
34205;BME280;20471;49.680;20.074;2024-01-10T22:24:22;98454.30;;;-10.39;65.57
34205;BME280;20471;49.680;20.074;2024-01-10T22:26:50;98457.00;;;-10.46;65.50
34205;BME280;20471;49.680;20.074;2024-01-10T22:29:18;98452.19;;;-10.52;65.38
34205;BME280;20471;49.680;20.074;2024-01-10T22:31:47;98454.31;;;-10.58;65.42
34205;BME280;20471;49.680;20.074;2024-01-10T22:34:15;98452.13;;;-10.64;65.41
34205;BME280;20471;49.680;20.074;2024-01-10T22:36:42;98454.95;;;-10.65;65.41
34205;BME280;20471;49.680;20.074;2024-01-10T22:39:10;98450.77;;;-10.66;65.41
34205;BME280;20471;49.680;20.074;2024-01-10T22:41:38;98445.73;;;-10.66;65.35
34205;BME280;20471;49.680;20.074;2024-01-10T22:44:05;98443.32;;;-10.71;65.34
34205;BME280;20471;49.680;20.074;2024-01-10T22:46:34;98434.73;;;-10.74;65.32
34205;BME280;20471;49.680;20.074;2024-01-10T22:49:01;98439.13;;;-10.75;65.59
34205;BME280;20471;49.680;20.074;2024-01-10T22:51:29;98435.21;;;-10.77;65.66
34205;BME280;20471;49.680;20.074;2024-01-10T22:53:57;98427.42;;;-10.79;65.81
34205;BME280;20471;49.680;20.074;2024-01-10T22:56:24;98428.44;;;-10.73;65.89
34205;BME280;20471;49.680;20.074;2024-01-10T22:58:52;98427.06;;;-10.74;65.74
34205;BME280;20471;49.680;20.074;2024-01-10T23:01:20;98429.38;;;-10.75;65.71
34205;BME280;20471;49.680;20.074;2024-01-10T23:03:47;98432.52;;;-10.80;65.56
34205;BME280;20471;49.680;20.074;2024-01-10T23:06:16;98433.14;;;-10.83;65.43
34205;BME280;20471;49.680;20.074;2024-01-10T23:08:44;98431.85;;;-10.86;65.39
34205;BME280;20471;49.680;20.074;2024-01-10T23:11:12;98422.79;;;-10.90;65.58
34205;BME280;20471;49.680;20.074;2024-01-10T23:13:39;98420.64;;;-10.93;65.57
34205;BME280;20471;49.680;20.074;2024-01-10T23:16:07;98415.70;;;-10.96;65.54
34205;BME280;20471;49.680;20.074;2024-01-10T23:18:35;98411.62;;;-10.94;65.96
34205;BME280;20471;49.680;20.074;2024-01-10T23:21:02;98409.10;;;-10.91;65.74
34205;BME280;20471;49.680;20.074;2024-01-10T23:23:30;98398.98;;;-10.96;65.72
34205;BME280;20471;49.680;20.074;2024-01-10T23:25:58;98394.64;;;-10.95;65.66
34205;BME280;20471;49.680;20.074;2024-01-10T23:28:25;98391.20;;;-10.96;65.73
34205;BME280;20471;49.680;20.074;2024-01-10T23:30:53;98390.02;;;-10.98;65.87
34205;BME280;20471;49.680;20.074;2024-01-10T23:33:21;98384.79;;;-11.01;65.75
34205;BME280;20471;49.680;20.074;2024-01-10T23:35:48;98381.38;;;-11.03;65.98
34205;BME280;20471;49.680;20.074;2024-01-10T23:38:16;98373.69;;;-10.97;66.02
34205;BME280;20471;49.680;20.074;2024-01-10T23:40:44;98372.33;;;-10.98;65.99
34205;BME280;20471;49.680;20.074;2024-01-10T23:43:13;98362.96;;;-11.08;65.87
34205;BME280;20471;49.680;20.074;2024-01-10T23:45:40;98361.63;;;-11.14;65.93
34205;BME280;20471;49.680;20.074;2024-01-10T23:48:08;98364.29;;;-11.16;65.99
34205;BME280;20471;49.680;20.074;2024-01-10T23:50:36;98364.27;;;-11.15;66.12
34205;BME280;20471;49.680;20.074;2024-01-10T23:53:03;98361.13;;;-11.11;66.32
34205;BME280;20471;49.680;20.074;2024-01-10T23:55:31;98362.82;;;-11.09;66.32